sensor_id;sensor_type;location;lat;lon;timestamp;pressure;altitude;pressure_sealevel;temperature
16956;BMP180;8594;52.052;8.354;2023-05-18T00:01:20;101809.00;;;11.70
16956;BMP180;8594;52.052;8.354;2023-05-18T00:03:46;101809.00;;;11.80
16956;BMP180;8594;52.052;8.354;2023-05-18T00:06:13;101813.00;;;11.30
16956;BMP180;8594;52.052;8.354;2023-05-18T00:08:42;101808.00;;;11.30
16956;BMP180;8594;52.052;8.354;2023-05-18T00:11:08;101804.00;;;11.10
16956;BMP180;8594;52.052;8.354;2023-05-18T00:13:35;101802.00;;;11.20
16956;BMP180;8594;52.052;8.354;2023-05-18T00:16:02;101804.00;;;11.30
16956;BMP180;8594;52.052;8.354;2023-05-18T00:18:29;101800.00;;;10.80
16956;BMP180;8594;52.052;8.354;2023-05-18T00:20:58;101811.00;;;11.30
16956;BMP180;8594;52.052;8.354;2023-05-18T00:23:26;101806.00;;;11.40
16956;BMP180;8594;52.052;8.354;2023-05-18T00:25:56;101803.00;;;11.20
16956;BMP180;8594;52.052;8.354;2023-05-18T00:28:24;101816.00;;;10.80
16956;BMP180;8594;52.052;8.354;2023-05-18T00:30:52;101810.00;;;10.70
16956;BMP180;8594;52.052;8.354;2023-05-18T00:33:19;101804.00;;;11.00
16956;BMP180;8594;52.052;8.354;2023-05-18T00:35:46;101806.00;;;11.20
16956;BMP180;8594;52.052;8.354;2023-05-18T00:38:13;101809.00;;;11.10
16956;BMP180;8594;52.052;8.354;2023-05-18T00:40:40;101809.00;;;11.30
16956;BMP180;8594;52.052;8.354;2023-05-18T00:43:09;101807.00;;;11.10
16956;BMP180;8594;52.052;8.354;2023-05-18T00:45:36;101809.00;;;11.40
16956;BMP180;8594;52.052;8.354;2023-05-18T00:48:03;101809.00;;;11.40
16956;BMP180;8594;52.052;8.354;2023-05-18T00:50:30;101804.00;;;11.30
16956;BMP180;8594;52.052;8.354;2023-05-18T00:52:57;101799.00;;;11.50
16956;BMP180;8594;52.052;8.354;2023-05-18T00:55:24;101807.00;;;11.40
16956;BMP180;8594;52.052;8.354;2023-05-18T00:57:53;101803.00;;;11.30
16956;BMP180;8594;52.052;8.354;2023-05-18T01:00:23;101801.00;;;11.20
16956;BMP180;8594;52.052;8.354;2023-05-18T01:02:50;101803.00;;;11.00
16956;BMP180;8594;52.052;8.354;2023-05-18T01:05:18;101805.00;;;11.40
16956;BMP180;8594;52.052;8.354;2023-05-18T01:07:47;101813.00;;;11.30
16956;BMP180;8594;52.052;8.354;2023-05-18T01:10:17;101812.00;;;11.30
16956;BMP180;8594;52.052;8.354;2023-05-18T01:12:53;101796.00;;;11.20
16956;BMP180;8594;52.052;8.354;2023-05-18T01:15:29;101809.00;;;11.20
16956;BMP180;8594;52.052;8.354;2023-05-18T01:18:08;101816.00;;;11.30
16956;BMP180;8594;52.052;8.354;2023-05-18T01:20:46;101809.00;;;11.00
16956;BMP180;8594;52.052;8.354;2023-05-18T01:23:52;101814.00;;;11.10
16956;BMP180;8594;52.052;8.354;2023-05-18T01:26:27;101818.00;;;10.90
16956;BMP180;8594;52.052;8.354;2023-05-18T01:29:05;101819.00;;;11.30
16956;BMP180;8594;52.052;8.354;2023-05-18T01:31:33;101816.00;;;11.30
16956;BMP180;8594;52.052;8.354;2023-05-18T01:34:00;101812.00;;;11.10
16956;BMP180;8594;52.052;8.354;2023-05-18T01:36:27;101812.00;;;10.90
16956;BMP180;8594;52.052;8.354;2023-05-18T01:38:55;101814.00;;;10.80
16956;BMP180;8594;52.052;8.354;2023-05-18T01:41:28;101813.00;;;10.90
16956;BMP180;8594;52.052;8.354;2023-05-18T01:44:07;101806.00;;;10.50
16956;BMP180;8594;52.052;8.354;2023-05-18T01:46:45;101805.00;;;10.60
16956;BMP180;8594;52.052;8.354;2023-05-18T01:49:29;101804.00;;;11.00
16956;BMP180;8594;52.052;8.354;2023-05-18T01:52:02;101809.00;;;11.00
16956;BMP180;8594;52.052;8.354;2023-05-18T01:54:32;101810.00;;;10.90
16956;BMP180;8594;52.052;8.354;2023-05-18T01:57:01;101812.00;;;11.00
16956;BMP180;8594;52.052;8.354;2023-05-18T01:59:29;101813.00;;;11.10
16956;BMP180;8594;52.052;8.354;2023-05-18T02:01:59;101809.00;;;11.20
16956;BMP180;8594;52.052;8.354;2023-05-18T02:04:26;101807.00;;;11.20
16956;BMP180;8594;52.052;8.354;2023-05-18T02:06:53;101804.00;;;10.90
16956;BMP180;8594;52.052;8.354;2023-05-18T02:09:20;101806.00;;;11.60
16956;BMP180;8594;52.052;8.354;2023-05-18T02:11:47;101809.00;;;11.40
16956;BMP180;8594;52.052;8.354;2023-05-18T02:14:15;101818.00;;;11.40
16956;BMP180;8594;52.052;8.354;2023-05-18T02:16:42;101815.00;;;11.20
16956;BMP180;8594;52.052;8.354;2023-05-18T02:19:11;101813.00;;;11.20
16956;BMP180;8594;52.052;8.354;2023-05-18T02:21:39;101810.00;;;10.80
16956;BMP180;8594;52.052;8.354;2023-05-18T02:24:07;101809.00;;;11.10
16956;BMP180;8594;52.052;8.354;2023-05-18T02:26:33;101814.00;;;10.60
16956;BMP180;8594;52.052;8.354;2023-05-18T02:29:02;101805.00;;;10.80
16956;BMP180;8594;52.052;8.354;2023-05-18T02:31:32;101800.00;;;10.90
16956;BMP180;8594;52.052;8.354;2023-05-18T02:34:00;101809.00;;;10.90
16956;BMP180;8594;52.052;8.354;2023-05-18T02:36:27;101805.00;;;10.80
16956;BMP180;8594;52.052;8.354;2023-05-18T02:39:02;101815.00;;;10.50
16956;BMP180;8594;52.052;8.354;2023-05-18T02:41:29;101809.00;;;10.80
16956;BMP180;8594;52.052;8.354;2023-05-18T02:43:56;101801.00;;;10.80
16956;BMP180;8594;52.052;8.354;2023-05-18T02:46:23;101810.00;;;10.60
16956;BMP180;8594;52.052;8.354;2023-05-18T02:48:51;101800.00;;;10.10
16956;BMP180;8594;52.052;8.354;2023-05-18T02:51:18;101819.00;;;10.60
16956;BMP180;8594;52.052;8.354;2023-05-18T02:53:46;101807.00;;;10.20
16956;BMP180;8594;52.052;8.354;2023-05-18T02:56:13;101812.00;;;10.70
16956;BMP180;8594;52.052;8.354;2023-05-18T02:58:42;101812.00;;;10.80
16956;BMP180;8594;52.052;8.354;2023-05-18T03:01:09;101816.00;;;10.90
16956;BMP180;8594;52.052;8.354;2023-05-18T03:03:38;101818.00;;;10.70
16956;BMP180;8594;52.052;8.354;2023-05-18T03:06:09;101820.00;;;10.60
16956;BMP180;8594;52.052;8.354;2023-05-18T03:08:36;101821.00;;;10.60
16956;BMP180;8594;52.052;8.354;2023-05-18T03:11:05;101822.00;;;10.40
16956;BMP180;8594;52.052;8.354;2023-05-18T03:13:32;101822.00;;;10.40
16956;BMP180;8594;52.052;8.354;2023-05-18T03:15:59;101822.00;;;10.20
16956;BMP180;8594;52.052;8.354;2023-05-18T03:18:25;101821.00;;;10.50
16956;BMP180;8594;52.052;8.354;2023-05-18T03:20:52;101820.00;;;9.70
16956;BMP180;8594;52.052;8.354;2023-05-18T03:23:20;101830.00;;;9.60
16956;BMP180;8594;52.052;8.354;2023-05-18T03:25:47;101821.00;;;10.00
16956;BMP180;8594;52.052;8.354;2023-05-18T03:28:19;101829.00;;;9.50
16956;BMP180;8594;52.052;8.354;2023-05-18T03:30:47;101821.00;;;9.40
16956;BMP180;8594;52.052;8.354;2023-05-18T03:33:14;101835.00;;;9.50
16956;BMP180;8594;52.052;8.354;2023-05-18T03:35:41;101834.00;;;10.10
16956;BMP180;8594;52.052;8.354;2023-05-18T03:38:08;101836.00;;;9.90
16956;BMP180;8594;52.052;8.354;2023-05-18T03:40:36;101828.00;;;9.80
16956;BMP180;8594;52.052;8.354;2023-05-18T03:43:02;101836.00;;;10.30
16956;BMP180;8594;52.052;8.354;2023-05-18T03:45:29;101834.00;;;10.30
16956;BMP180;8594;52.052;8.354;2023-05-18T03:47:56;101832.00;;;10.10
16956;BMP180;8594;52.052;8.354;2023-05-18T03:50:23;101831.00;;;10.30
16956;BMP180;8594;52.052;8.354;2023-05-18T03:52:51;101827.00;;;10.50
16956;BMP180;8594;52.052;8.354;2023-05-18T03:55:18;101835.00;;;10.50
16956;BMP180;8594;52.052;8.354;2023-05-18T03:57:47;101832.00;;;10.70
16956;BMP180;8594;52.052;8.354;2023-05-18T04:00:15;101828.00;;;10.10
16956;BMP180;8594;52.052;8.354;2023-05-18T04:02:41;101847.00;;;10.30
16956;BMP180;8594;52.052;8.354;2023-05-18T04:05:08;101836.00;;;10.70
16956;BMP180;8594;52.052;8.354;2023-05-18T04:07:36;101847.00;;;10.60
16956;BMP180;8594;52.052;8.354;2023-05-18T04:10:09;101837.00;;;10.80
16956;BMP180;8594;52.052;8.354;2023-05-18T04:12:36;101839.00;;;10.50
16956;BMP180;8594;52.052;8.354;2023-05-18T04:15:06;101840.00;;;10.50
16956;BMP180;8594;52.052;8.354;2023-05-18T04:17:33;101841.00;;;10.90
16956;BMP180;8594;52.052;8.354;2023-05-18T04:20:01;101836.00;;;11.00
16956;BMP180;8594;52.052;8.354;2023-05-18T04:22:42;101840.00;;;11.20
16956;BMP180;8594;52.052;8.354;2023-05-18T04:25:11;101842.00;;;11.30
16956;BMP180;8594;52.052;8.354;2023-05-18T04:27:39;101846.00;;;11.30
16956;BMP180;8594;52.052;8.354;2023-05-18T04:30:09;101841.00;;;11.30
16956;BMP180;8594;52.052;8.354;2023-05-18T04:32:36;101847.00;;;10.80
16956;BMP180;8594;52.052;8.354;2023-05-18T04:35:04;101847.00;;;11.00
16956;BMP180;8594;52.052;8.354;2023-05-18T04:37:31;101847.00;;;11.50
16956;BMP180;8594;52.052;8.354;2023-05-18T04:39:58;101850.00;;;11.80
16956;BMP180;8594;52.052;8.354;2023-05-18T04:42:27;101853.00;;;12.30
16956;BMP180;8594;52.052;8.354;2023-05-18T04:44:53;101855.00;;;13.10
16956;BMP180;8594;52.052;8.354;2023-05-18T04:47:21;101845.00;;;13.50
16956;BMP180;8594;52.052;8.354;2023-05-18T04:49:49;101846.00;;;13.60
16956;BMP180;8594;52.052;8.354;2023-05-18T04:52:17;101847.00;;;13.20
16956;BMP180;8594;52.052;8.354;2023-05-18T04:54:44;101842.00;;;13.60
16956;BMP180;8594;52.052;8.354;2023-05-18T04:57:11;101839.00;;;14.40
16956;BMP180;8594;52.052;8.354;2023-05-18T04:59:38;101851.00;;;13.30
16956;BMP180;8594;52.052;8.354;2023-05-18T05:02:06;101852.00;;;14.30
16956;BMP180;8594;52.052;8.354;2023-05-18T05:04:34;101852.00;;;14.20
16956;BMP180;8594;52.052;8.354;2023-05-18T05:07:00;101850.00;;;14.30
16956;BMP180;8594;52.052;8.354;2023-05-18T05:09:27;101856.00;;;14.70
16956;BMP180;8594;52.052;8.354;2023-05-18T05:11:55;101851.00;;;15.30
16956;BMP180;8594;52.052;8.354;2023-05-18T05:14:21;101843.00;;;14.40
16956;BMP180;8594;52.052;8.354;2023-05-18T05:16:48;101846.00;;;15.10
16956;BMP180;8594;52.052;8.354;2023-05-18T05:19:15;101848.00;;;15.60
16956;BMP180;8594;52.052;8.354;2023-05-18T05:21:43;101848.00;;;15.30
16956;BMP180;8594;52.052;8.354;2023-05-18T05:24:10;101853.00;;;16.00
16956;BMP180;8594;52.052;8.354;2023-05-18T05:26:37;101859.00;;;15.60
16956;BMP180;8594;52.052;8.354;2023-05-18T05:29:03;101858.00;;;15.10
16956;BMP180;8594;52.052;8.354;2023-05-18T05:31:30;101863.00;;;14.60
16956;BMP180;8594;52.052;8.354;2023-05-18T05:33:58;101858.00;;;16.00
16956;BMP180;8594;52.052;8.354;2023-05-18T05:36:25;101859.00;;;15.70
16956;BMP180;8594;52.052;8.354;2023-05-18T05:38:53;101857.00;;;15.70
16956;BMP180;8594;52.052;8.354;2023-05-18T05:41:20;101855.00;;;16.20
16956;BMP180;8594;52.052;8.354;2023-05-18T05:43:47;101860.00;;;15.80
16956;BMP180;8594;52.052;8.354;2023-05-18T05:46:14;101860.00;;;15.90
16956;BMP180;8594;52.052;8.354;2023-05-18T05:48:41;101861.00;;;15.80
16956;BMP180;8594;52.052;8.354;2023-05-18T05:51:07;101871.00;;;16.30
16956;BMP180;8594;52.052;8.354;2023-05-18T05:53:34;101870.00;;;15.60
16956;BMP180;8594;52.052;8.354;2023-05-18T05:56:03;101876.00;;;15.80
16956;BMP180;8594;52.052;8.354;2023-05-18T05:58:32;101869.00;;;16.00
16956;BMP180;8594;52.052;8.354;2023-05-18T06:00:59;101885.00;;;16.20
16956;BMP180;8594;52.052;8.354;2023-05-18T06:03:25;101879.00;;;16.00
16956;BMP180;8594;52.052;8.354;2023-05-18T06:05:53;101878.00;;;16.30
16956;BMP180;8594;52.052;8.354;2023-05-18T06:08:20;101885.00;;;16.90
16956;BMP180;8594;52.052;8.354;2023-05-18T06:10:48;101878.00;;;16.70
16956;BMP180;8594;52.052;8.354;2023-05-18T06:13:17;101884.00;;;16.50
16956;BMP180;8594;52.052;8.354;2023-05-18T06:15:44;101892.00;;;17.40
16956;BMP180;8594;52.052;8.354;2023-05-18T06:18:10;101886.00;;;16.90
16956;BMP180;8594;52.052;8.354;2023-05-18T06:20:38;101886.00;;;16.80
16956;BMP180;8594;52.052;8.354;2023-05-18T06:23:05;101888.00;;;17.20
16956;BMP180;8594;52.052;8.354;2023-05-18T06:25:31;101894.00;;;17.80
16956;BMP180;8594;52.052;8.354;2023-05-18T06:27:59;101892.00;;;17.80
16956;BMP180;8594;52.052;8.354;2023-05-18T06:30:27;101890.00;;;17.60
16956;BMP180;8594;52.052;8.354;2023-05-18T06:32:54;101894.00;;;17.50
16956;BMP180;8594;52.052;8.354;2023-05-18T06:35:21;101896.00;;;17.00
16956;BMP180;8594;52.052;8.354;2023-05-18T06:37:49;101908.00;;;17.50
16956;BMP180;8594;52.052;8.354;2023-05-18T06:40:19;101914.00;;;18.20
16956;BMP180;8594;52.052;8.354;2023-05-18T06:42:45;101914.00;;;18.20
16956;BMP180;8594;52.052;8.354;2023-05-18T06:45:13;101919.00;;;18.30
16956;BMP180;8594;52.052;8.354;2023-05-18T06:47:41;101926.00;;;17.60
16956;BMP180;8594;52.052;8.354;2023-05-18T06:50:09;101927.00;;;17.40
16956;BMP180;8594;52.052;8.354;2023-05-18T06:52:36;101918.00;;;18.30
16956;BMP180;8594;52.052;8.354;2023-05-18T06:55:03;101909.00;;;17.90
16956;BMP180;8594;52.052;8.354;2023-05-18T06:57:30;101910.00;;;18.30
16956;BMP180;8594;52.052;8.354;2023-05-18T06:59:58;101911.00;;;17.70
16956;BMP180;8594;52.052;8.354;2023-05-18T07:02:25;101909.00;;;17.20
16956;BMP180;8594;52.052;8.354;2023-05-18T07:04:54;101914.00;;;16.40
16956;BMP180;8594;52.052;8.354;2023-05-18T07:07:21;101915.00;;;15.70
16956;BMP180;8594;52.052;8.354;2023-05-18T07:09:48;101919.00;;;16.30
16956;BMP180;8594;52.052;8.354;2023-05-18T07:12:15;101919.00;;;16.70
16956;BMP180;8594;52.052;8.354;2023-05-18T07:14:42;101930.00;;;16.40
16956;BMP180;8594;52.052;8.354;2023-05-18T07:17:09;101926.00;;;16.20
16956;BMP180;8594;52.052;8.354;2023-05-18T07:19:36;101920.00;;;16.60
16956;BMP180;8594;52.052;8.354;2023-05-18T07:22:04;101917.00;;;16.60
16956;BMP180;8594;52.052;8.354;2023-05-18T07:24:32;101921.00;;;17.40
16956;BMP180;8594;52.052;8.354;2023-05-18T07:26:58;101921.00;;;16.80
16956;BMP180;8594;52.052;8.354;2023-05-18T07:29:25;101922.00;;;16.80
16956;BMP180;8594;52.052;8.354;2023-05-18T07:31:52;101923.00;;;16.80
16956;BMP180;8594;52.052;8.354;2023-05-18T07:34:19;101926.00;;;17.70
16956;BMP180;8594;52.052;8.354;2023-05-18T07:36:46;101933.00;;;18.00
16956;BMP180;8594;52.052;8.354;2023-05-18T07:39:14;101920.00;;;18.00
16956;BMP180;8594;52.052;8.354;2023-05-18T07:41:43;101919.00;;;17.40
16956;BMP180;8594;52.052;8.354;2023-05-18T07:44:11;101926.00;;;17.70
16956;BMP180;8594;52.052;8.354;2023-05-18T07:46:38;101922.00;;;18.00
16956;BMP180;8594;52.052;8.354;2023-05-18T07:49:06;101919.00;;;18.10
16956;BMP180;8594;52.052;8.354;2023-05-18T07:51:32;101927.00;;;17.30
16956;BMP180;8594;52.052;8.354;2023-05-18T07:53:59;101916.00;;;18.20
16956;BMP180;8594;52.052;8.354;2023-05-18T07:56:28;101926.00;;;18.40
16956;BMP180;8594;52.052;8.354;2023-05-18T07:58:54;101925.00;;;18.80
16956;BMP180;8594;52.052;8.354;2023-05-18T08:01:22;101932.00;;;19.40
16956;BMP180;8594;52.052;8.354;2023-05-18T08:03:52;101929.00;;;18.80
16956;BMP180;8594;52.052;8.354;2023-05-18T08:06:19;101928.00;;;18.70
16956;BMP180;8594;52.052;8.354;2023-05-18T08:08:46;101927.00;;;18.10
16956;BMP180;8594;52.052;8.354;2023-05-18T08:11:13;101932.00;;;18.30
16956;BMP180;8594;52.052;8.354;2023-05-18T08:13:41;101938.00;;;17.80
16956;BMP180;8594;52.052;8.354;2023-05-18T08:16:07;101926.00;;;18.80
16956;BMP180;8594;52.052;8.354;2023-05-18T08:18:34;101929.00;;;18.30
16956;BMP180;8594;52.052;8.354;2023-05-18T08:21:01;101933.00;;;18.10
16956;BMP180;8594;52.052;8.354;2023-05-18T08:23:28;101932.00;;;18.00
16956;BMP180;8594;52.052;8.354;2023-05-18T08:25:55;101939.00;;;17.70
16956;BMP180;8594;52.052;8.354;2023-05-18T08:28:24;101925.00;;;17.90
16956;BMP180;8594;52.052;8.354;2023-05-18T08:30:53;101927.00;;;18.50
16956;BMP180;8594;52.052;8.354;2023-05-18T08:33:20;101922.00;;;19.00
16956;BMP180;8594;52.052;8.354;2023-05-18T08:35:47;101913.00;;;18.50
16956;BMP180;8594;52.052;8.354;2023-05-18T08:38:14;101928.00;;;17.60
16956;BMP180;8594;52.052;8.354;2023-05-18T08:40:50;101919.00;;;17.70
16956;BMP180;8594;52.052;8.354;2023-05-18T08:43:21;101914.00;;;18.30
16956;BMP180;8594;52.052;8.354;2023-05-18T08:46:03;101914.00;;;18.30
16956;BMP180;8594;52.052;8.354;2023-05-18T08:48:32;101916.00;;;18.60
16956;BMP180;8594;52.052;8.354;2023-05-18T08:51:01;101911.00;;;19.30
16956;BMP180;8594;52.052;8.354;2023-05-18T08:53:31;101909.00;;;19.60
16956;BMP180;8594;52.052;8.354;2023-05-18T08:55:59;101912.00;;;19.80
16956;BMP180;8594;52.052;8.354;2023-05-18T08:58:33;101915.00;;;19.10
16956;BMP180;8594;52.052;8.354;2023-05-18T09:01:03;101912.00;;;19.30
16956;BMP180;8594;52.052;8.354;2023-05-18T09:03:31;101905.00;;;19.50
16956;BMP180;8594;52.052;8.354;2023-05-18T09:05:59;101911.00;;;18.70
16956;BMP180;8594;52.052;8.354;2023-05-18T09:08:28;101903.00;;;19.00
16956;BMP180;8594;52.052;8.354;2023-05-18T09:10:57;101904.00;;;18.90
16956;BMP180;8594;52.052;8.354;2023-05-18T09:13:24;101905.00;;;18.80
16956;BMP180;8594;52.052;8.354;2023-05-18T09:15:52;101892.00;;;18.00
16956;BMP180;8594;52.052;8.354;2023-05-18T09:18:20;101905.00;;;18.10
16956;BMP180;8594;52.052;8.354;2023-05-18T09:20:47;101896.00;;;18.30
16956;BMP180;8594;52.052;8.354;2023-05-18T09:23:15;101901.00;;;18.50
16956;BMP180;8594;52.052;8.354;2023-05-18T09:25:44;101896.00;;;19.60
16956;BMP180;8594;52.052;8.354;2023-05-18T09:28:12;101897.00;;;19.30
16956;BMP180;8594;52.052;8.354;2023-05-18T09:30:41;101894.00;;;18.40
16956;BMP180;8594;52.052;8.354;2023-05-18T09:33:15;101892.00;;;19.00
16956;BMP180;8594;52.052;8.354;2023-05-18T09:35:45;101890.00;;;19.30
16956;BMP180;8594;52.052;8.354;2023-05-18T09:38:14;101897.00;;;19.20
16956;BMP180;8594;52.052;8.354;2023-05-18T09:40:45;101891.00;;;18.90
16956;BMP180;8594;52.052;8.354;2023-05-18T09:43:14;101879.00;;;19.40
16956;BMP180;8594;52.052;8.354;2023-05-18T09:45:43;101886.00;;;19.70
16956;BMP180;8594;52.052;8.354;2023-05-18T09:48:11;101883.00;;;19.20
16956;BMP180;8594;52.052;8.354;2023-05-18T09:50:39;101877.00;;;19.10
16956;BMP180;8594;52.052;8.354;2023-05-18T09:53:08;101881.00;;;19.30
16956;BMP180;8594;52.052;8.354;2023-05-18T09:55:39;101885.00;;;19.00
16956;BMP180;8594;52.052;8.354;2023-05-18T09:58:11;101879.00;;;18.80
16956;BMP180;8594;52.052;8.354;2023-05-18T10:00:41;101880.00;;;18.80
16956;BMP180;8594;52.052;8.354;2023-05-18T10:03:21;101883.00;;;19.40
16956;BMP180;8594;52.052;8.354;2023-05-18T10:05:49;101889.00;;;19.70
16956;BMP180;8594;52.052;8.354;2023-05-18T10:08:17;101887.00;;;18.70
16956;BMP180;8594;52.052;8.354;2023-05-18T10:10:46;101880.00;;;19.10
16956;BMP180;8594;52.052;8.354;2023-05-18T10:13:15;101883.00;;;17.80
16956;BMP180;8594;52.052;8.354;2023-05-18T10:15:49;101883.00;;;17.80
16956;BMP180;8594;52.052;8.354;2023-05-18T10:18:22;101874.00;;;17.60
16956;BMP180;8594;52.052;8.354;2023-05-18T10:20:50;101869.00;;;18.00
16956;BMP180;8594;52.052;8.354;2023-05-18T10:23:20;101858.00;;;17.50
16956;BMP180;8594;52.052;8.354;2023-05-18T10:25:49;101864.00;;;18.70
16956;BMP180;8594;52.052;8.354;2023-05-18T10:28:19;101877.00;;;19.10
16956;BMP180;8594;52.052;8.354;2023-05-18T10:30:52;101881.00;;;18.40
16956;BMP180;8594;52.052;8.354;2023-05-18T10:33:22;101858.00;;;19.20
16956;BMP180;8594;52.052;8.354;2023-05-18T10:35:51;101862.00;;;18.60
16956;BMP180;8594;52.052;8.354;2023-05-18T10:38:21;101865.00;;;19.10
16956;BMP180;8594;52.052;8.354;2023-05-18T10:40:50;101864.00;;;19.20
16956;BMP180;8594;52.052;8.354;2023-05-18T10:43:19;101865.00;;;18.80
16956;BMP180;8594;52.052;8.354;2023-05-18T10:45:51;101870.00;;;19.90
16956;BMP180;8594;52.052;8.354;2023-05-18T10:48:19;101865.00;;;20.00
16956;BMP180;8594;52.052;8.354;2023-05-18T10:50:48;101864.00;;;19.90
16956;BMP180;8594;52.052;8.354;2023-05-18T10:53:19;101870.00;;;19.80
16956;BMP180;8594;52.052;8.354;2023-05-18T10:55:46;101864.00;;;20.50
16956;BMP180;8594;52.052;8.354;2023-05-18T10:58:19;101861.00;;;20.20
16956;BMP180;8594;52.052;8.354;2023-05-18T11:00:49;101869.00;;;19.90
16956;BMP180;8594;52.052;8.354;2023-05-18T11:03:18;101850.00;;;19.60
16956;BMP180;8594;52.052;8.354;2023-05-18T11:05:49;101859.00;;;19.80
16956;BMP180;8594;52.052;8.354;2023-05-18T11:08:27;101845.00;;;19.40
16956;BMP180;8594;52.052;8.354;2023-05-18T11:11:02;101845.00;;;20.30
16956;BMP180;8594;52.052;8.354;2023-05-18T11:13:33;101853.00;;;19.80
16956;BMP180;8594;52.052;8.354;2023-05-18T11:16:05;101848.00;;;20.30
16956;BMP180;8594;52.052;8.354;2023-05-18T11:18:39;101847.00;;;18.90
16956;BMP180;8594;52.052;8.354;2023-05-18T11:21:30;101842.00;;;19.50
16956;BMP180;8594;52.052;8.354;2023-05-18T11:24:18;101838.00;;;19.50
16956;BMP180;8594;52.052;8.354;2023-05-18T11:26:49;101837.00;;;19.60
16956;BMP180;8594;52.052;8.354;2023-05-18T11:29:18;101838.00;;;19.40
16956;BMP180;8594;52.052;8.354;2023-05-18T11:31:48;101839.00;;;20.20
16956;BMP180;8594;52.052;8.354;2023-05-18T11:34:35;101834.00;;;18.80
16956;BMP180;8594;52.052;8.354;2023-05-18T11:37:02;101836.00;;;18.80
16956;BMP180;8594;52.052;8.354;2023-05-18T11:39:31;101832.00;;;19.60
16956;BMP180;8594;52.052;8.354;2023-05-18T11:42:00;101845.00;;;19.60
16956;BMP180;8594;52.052;8.354;2023-05-18T11:44:27;101835.00;;;19.80
16956;BMP180;8594;52.052;8.354;2023-05-18T11:47:00;101842.00;;;19.80
16956;BMP180;8594;52.052;8.354;2023-05-18T11:49:30;101841.00;;;19.50
16956;BMP180;8594;52.052;8.354;2023-05-18T11:52:03;101838.00;;;19.80
16956;BMP180;8594;52.052;8.354;2023-05-18T11:54:39;101840.00;;;19.80
16956;BMP180;8594;52.052;8.354;2023-05-18T11:57:07;101832.00;;;19.30
16956;BMP180;8594;52.052;8.354;2023-05-18T11:59:39;101828.00;;;18.90
16956;BMP180;8594;52.052;8.354;2023-05-18T12:02:08;101823.00;;;20.10
16956;BMP180;8594;52.052;8.354;2023-05-18T12:04:44;101814.00;;;20.50
16956;BMP180;8594;52.052;8.354;2023-05-18T12:07:12;101825.00;;;20.30
16956;BMP180;8594;52.052;8.354;2023-05-18T12:09:42;101828.00;;;21.30
16956;BMP180;8594;52.052;8.354;2023-05-18T12:12:11;101817.00;;;21.30
16956;BMP180;8594;52.052;8.354;2023-05-18T12:14:40;101820.00;;;19.90
16956;BMP180;8594;52.052;8.354;2023-05-18T12:17:08;101822.00;;;19.60
16956;BMP180;8594;52.052;8.354;2023-05-18T12:19:41;101820.00;;;20.00
16956;BMP180;8594;52.052;8.354;2023-05-18T12:22:09;101814.00;;;20.00
16956;BMP180;8594;52.052;8.354;2023-05-18T12:24:37;101813.00;;;19.60
16956;BMP180;8594;52.052;8.354;2023-05-18T12:27:08;101821.00;;;20.70
16956;BMP180;8594;52.052;8.354;2023-05-18T12:29:40;101819.00;;;19.10
16956;BMP180;8594;52.052;8.354;2023-05-18T12:32:10;101804.00;;;20.00
16956;BMP180;8594;52.052;8.354;2023-05-18T12:34:38;101810.00;;;20.20
16956;BMP180;8594;52.052;8.354;2023-05-18T12:37:05;101802.00;;;20.00
16956;BMP180;8594;52.052;8.354;2023-05-18T12:39:33;101808.00;;;19.80
16956;BMP180;8594;52.052;8.354;2023-05-18T12:42:10;101802.00;;;20.00
16956;BMP180;8594;52.052;8.354;2023-05-18T12:44:37;101799.00;;;20.20
16956;BMP180;8594;52.052;8.354;2023-05-18T12:47:04;101807.00;;;20.10
16956;BMP180;8594;52.052;8.354;2023-05-18T12:49:39;101793.00;;;20.70
16956;BMP180;8594;52.052;8.354;2023-05-18T12:52:11;101795.00;;;20.80
16956;BMP180;8594;52.052;8.354;2023-05-18T12:54:51;101800.00;;;20.70
16956;BMP180;8594;52.052;8.354;2023-05-18T12:57:27;101803.00;;;20.20
16956;BMP180;8594;52.052;8.354;2023-05-18T12:59:56;101796.00;;;20.60
16956;BMP180;8594;52.052;8.354;2023-05-18T13:02:29;101796.00;;;19.80
16956;BMP180;8594;52.052;8.354;2023-05-18T13:05:05;101791.00;;;20.30
16956;BMP180;8594;52.052;8.354;2023-05-18T13:07:38;101800.00;;;19.70
16956;BMP180;8594;52.052;8.354;2023-05-18T13:10:07;101787.00;;;19.90
16956;BMP180;8594;52.052;8.354;2023-05-18T13:12:42;101793.00;;;19.40
16956;BMP180;8594;52.052;8.354;2023-05-18T13:15:12;101786.00;;;20.10
16956;BMP180;8594;52.052;8.354;2023-05-18T13:17:53;101788.00;;;19.90
16956;BMP180;8594;52.052;8.354;2023-05-18T13:20:20;101788.00;;;19.20
16956;BMP180;8594;52.052;8.354;2023-05-18T13:22:49;101786.00;;;19.90
16956;BMP180;8594;52.052;8.354;2023-05-18T13:25:16;101782.00;;;20.00
16956;BMP180;8594;52.052;8.354;2023-05-18T13:27:44;101783.00;;;20.10
16956;BMP180;8594;52.052;8.354;2023-05-18T13:30:13;101774.00;;;19.80
16956;BMP180;8594;52.052;8.354;2023-05-18T13:32:40;101771.00;;;20.10
16956;BMP180;8594;52.052;8.354;2023-05-18T13:35:08;101767.00;;;20.10
16956;BMP180;8594;52.052;8.354;2023-05-18T13:37:36;101768.00;;;20.50
16956;BMP180;8594;52.052;8.354;2023-05-18T13:40:05;101775.00;;;20.10
16956;BMP180;8594;52.052;8.354;2023-05-18T13:42:32;101768.00;;;20.10
16956;BMP180;8594;52.052;8.354;2023-05-18T13:45:00;101765.00;;;19.80
16956;BMP180;8594;52.052;8.354;2023-05-18T13:47:27;101756.00;;;19.90
16956;BMP180;8594;52.052;8.354;2023-05-18T13:49:54;101750.00;;;20.30
16956;BMP180;8594;52.052;8.354;2023-05-18T13:52:21;101758.00;;;19.80
16956;BMP180;8594;52.052;8.354;2023-05-18T13:54:50;101747.00;;;19.90
16956;BMP180;8594;52.052;8.354;2023-05-18T13:57:17;101745.00;;;19.60
16956;BMP180;8594;52.052;8.354;2023-05-18T13:59:44;101747.00;;;19.60
16956;BMP180;8594;52.052;8.354;2023-05-18T14:02:13;101736.00;;;19.50
16956;BMP180;8594;52.052;8.354;2023-05-18T14:04:40;101736.00;;;20.10
16956;BMP180;8594;52.052;8.354;2023-05-18T14:07:06;101734.00;;;20.00
16956;BMP180;8594;52.052;8.354;2023-05-18T14:09:35;101735.00;;;19.10
16956;BMP180;8594;52.052;8.354;2023-05-18T14:12:02;101730.00;;;20.50
16956;BMP180;8594;52.052;8.354;2023-05-18T14:14:29;101733.00;;;20.40
16956;BMP180;8594;52.052;8.354;2023-05-18T14:16:56;101725.00;;;21.00
16956;BMP180;8594;52.052;8.354;2023-05-18T14:19:24;101728.00;;;20.30